Moonray — V7PK7 — position and weather

sailwx.info

Track history (hours):
 
Tides and Currents Weather Stations Pressure Air Temp Water Temp Dewpoint Dewpoint Depression Visibility Wind Speed Wind Dir Waves Ship Positions

Moonray

Last reported at 2017-Sep-20 20:12 UTC. Time now 2017-Sep-23 03:48 UTC.
Position N 36°14' E 014°52'.

Length 190 m; draft 11.8 m.

Type: Cargo ship. MMSI: 538003250.

Date/timePositionNaut miles runAvg speedWind from/ knotsBaromVisibWave heightAir tempDewpointWater temp
2017-Sep-20 20:12N 36°14' E 014°52'212.9
2017-Sep-20 20:00N 36°14' E 014°49'713.0
2017-Sep-20 19:30N 36°15' E 014°41'713.2
2017-Sep-20 19:00N 36°17' E 014°34'713.3
2017-Sep-20 18:30N 36°19' E 014°26'713.4
2017-Sep-20 18:00N 36°22' E 014°18'713.4
2017-Sep-20 17:30N 36°24' E 014°10'713.2
2017-Sep-20 17:00N 36°25' E 014°02'712.9
2017-Sep-20 16:30N 36°28' E 013°55'612.8
2017-Sep-20 16:00N 36°30' E 013°47'813.1
2017-Sep-20 15:23N 36°33' E 013°38'55012.5
2017-Sep-18 19:23N 36°54' E 002°13'512.5
2017-Sep-18 19:00N 36°53' E 002°07'712.4
2017-Sep-18 18:27N 36°52' E 001°59'512.2
2017-Sep-18 18:00N 36°51' E 001°52'612.2
2017-Sep-18 17:30N 36°49' E 001°45'1512.1
2017-Sep-18 16:16N 36°47' E 001°26'312.0
2017-Sep-18 16:00N 36°46' E 001°22'1512.9
2017-Sep-18 14:51N 36°44' E 001°04'11013.0
2017-Sep-18 06:22N 36°29' W 001°12'19313.8
2017-Sep-17 16:22N 36°00' W 005°09'514.4
2017-Sep-17 16:00N 35°59' W 005°15'917.0
2017-Sep-17 15:30N 35°57' W 005°26'816.0
2017-Sep-17 15:00N 35°55' W 005°35'815.3
2017-Sep-17 14:29N 35°55' W 005°45'10912.9
2017-Sep-17 06:03N 36°07' W 007°59'112.5
2017-Sep-17 05:56N 36°07' W 008°01'512.3
2017-Sep-17 05:30N 36°08' W 008°07'612.1
2017-Sep-17 05:00N 36°09' W 008°15'612.2
2017-Sep-17 04:30N 36°10' W 008°22'612.2
2017-Sep-17 04:01N 36°11' W 008°30'611.9
2017-Sep-17 03:30N 36°12' W 008°37'2011.7
2017-Sep-17 01:46N 36°15' W 009°02'411.7
2017-Sep-17 01:26N 36°16' W 009°07'1011.4
2017-Sep-17 00:36N 36°17' W 009°18'  
2017-Sep-14 18:39N 37°27' W 022°45'312.2
2017-Sep-14 18:24N 37°27' W 022°49'512.1
2017-Sep-14 17:58N 37°28' W 022°56'712.3
2017-Sep-14 17:22N 37°28' W 023°05'512.4
2017-Sep-14 16:58N 37°28' W 023°12'1412.4
2017-Sep-14 15:48N 37°28' W 023°30'412.1
2017-Sep-14 15:29N 37°28' W 023°34'612.1
2017-Sep-14 15:00N 37°29' W 023°42'612.2
2017-Sep-14 14:30N 37°29' W 023°49'612.2
2017-Sep-14 14:01N 37°29' W 023°57'612.5
2017-Sep-14 13:30N 37°29' W 024°05'612.7
2017-Sep-14 13:00N 37°29' W 024°13'712.9
2017-Sep-14 12:30N 37°29' W 024°21'612.4
2017-Sep-14 12:00N 37°29' W 024°29'612.2
2017-Sep-14 11:30N 37°29' W 024°37'612.3
2017-Sep-14 11:00N 37°30' W 024°44'612.4
2017-Sep-14 10:30N 37°30' W 024°52'612.6
2017-Sep-14 10:01N 37°30' W 025°00'612.6
2017-Sep-14 09:31N 37°30' W 025°08'612.6
2017-Sep-14 09:01N 37°30' W 025°16'612.4
2017-Sep-14 08:30N 37°30' W 025°24'612.6
2017-Sep-14 08:00N 37°30' W 025°32'612.5
2017-Sep-14 07:31N 37°30' W 025°40'612.6
2017-Sep-14 07:01N 37°30' W 025°48'612.4
2017-Sep-14 06:31N 37°30' W 025°55'612.4
2017-Sep-14 06:01N 37°30' W 026°03'612.1
2017-Sep-14 05:30N 37°31' W 026°11'612.2
2017-Sep-14 05:01N 37°31' W 026°19'612.2
2017-Sep-14 04:30N 37°31' W 026°26'612.5
2017-Sep-14 04:00N 37°31' W 026°34'612.4
2017-Sep-14 03:30N 37°31' W 026°42'612.5
2017-Sep-14 03:00N 37°31' W 026°50'612.4
2017-Sep-14 02:30N 37°31' W 026°58'812.5
2017-Sep-14 01:52N 37°31' W 027°08'512.3
2017-Sep-14 01:29N 37°31' W 027°14'612.1
2017-Sep-14 01:01N 37°31' W 027°21'712.1
2017-Sep-14 00:27N 37°31' W 027°29'712.4
2017-Sep-13 23:53N 37°32' W 027°38'512.3
2017-Sep-13 23:30N 37°32' W 027°44'612.6
2017-Sep-13 23:00N 37°32' W 027°52'612.7
2017-Sep-13 22:30N 37°32' W 027°60'612.8
2017-Sep-13 22:00N 37°32' W 028°08'612.3
2017-Sep-13 21:30N 37°32' W 028°16'612.2
2017-Sep-13 21:00N 37°32' W 028°24'612.3
2017-Sep-13 20:30N 37°32' W 028°31'612.4
2017-Sep-13 20:00N 37°32' W 028°39'612.4
2017-Sep-13 19:31N 37°32' W 028°47'612.2
2017-Sep-13 19:00N 37°32' W 028°55'612.4
2017-Sep-13 18:30N 37°32' W 029°02'612.4
2017-Sep-13 18:00N 37°33' W 029°10'612.3
2017-Sep-13 17:30N 37°32' W 029°18'612.5
2017-Sep-13 17:00N 37°32' W 029°26'612.5
2017-Sep-13 16:30N 37°33' W 029°34'612.3
2017-Sep-13 15:59N 37°33' W 029°42'612.7
2017-Sep-13 15:30N 37°33' W 029°50'713.0
2017-Sep-13 15:00N 37°33' W 029°58'712.6
2017-Sep-13 14:28N 37°33' W 030°06'612.8
2017-Sep-13 13:58N 37°32' W 030°14'  
Track history (hours):
 
Tides and Currents Weather Stations Pressure Air Temp Water Temp Dewpoint Dewpoint Depression Visibility Wind Speed Wind Dir Waves Ship Positions

Moonray

Last reported at 2017-Sep-20 20:12 UTC. Time now 2017-Sep-23 03:48 UTC.
Position N 36°14' E 014°52'.

Length 190 m; draft 11.8 m.

Type: Cargo ship. MMSI: 538003250.

Date/timePositionNaut miles runAvg speedWind from/ knotsBaromVisibWave heightAir tempDewpointWater temp
2017-Sep-20 20:12N 36°14' E 014°52'212.9
2017-Sep-20 20:00N 36°14' E 014°49'713.0
2017-Sep-20 19:30N 36°15' E 014°41'713.2
2017-Sep-20 19:00N 36°17' E 014°34'713.3
2017-Sep-20 18:30N 36°19' E 014°26'713.4
2017-Sep-20 18:00N 36°22' E 014°18'713.4
2017-Sep-20 17:30N 36°24' E 014°10'713.2
2017-Sep-20 17:00N 36°25' E 014°02'712.9
2017-Sep-20 16:30N 36°28' E 013°55'612.8
2017-Sep-20 16:00N 36°30' E 013°47'813.1
2017-Sep-20 15:23N 36°33' E 013°38'55012.5
2017-Sep-18 19:23N 36°54' E 002°13'512.5
2017-Sep-18 19:00N 36°53' E 002°07'712.4
2017-Sep-18 18:27N 36°52' E 001°59'512.2
2017-Sep-18 18:00N 36°51' E 001°52'612.2
2017-Sep-18 17:30N 36°49' E 001°45'1512.1
2017-Sep-18 16:16N 36°47' E 001°26'312.0
2017-Sep-18 16:00N 36°46' E 001°22'1512.9
2017-Sep-18 14:51N 36°44' E 001°04'11013.0
2017-Sep-18 06:22N 36°29' W 001°12'19313.8
2017-Sep-17 16:22N 36°00' W 005°09'514.4
2017-Sep-17 16:00N 35°59' W 005°15'917.0
2017-Sep-17 15:30N 35°57' W 005°26'816.0
2017-Sep-17 15:00N 35°55' W 005°35'815.3
2017-Sep-17 14:29N 35°55' W 005°45'10912.9
2017-Sep-17 06:03N 36°07' W 007°59'112.5
2017-Sep-17 05:56N 36°07' W 008°01'512.3
2017-Sep-17 05:30N 36°08' W 008°07'612.1
2017-Sep-17 05:00N 36°09' W 008°15'612.2
2017-Sep-17 04:30N 36°10' W 008°22'612.2
2017-Sep-17 04:01N 36°11' W 008°30'611.9
2017-Sep-17 03:30N 36°12' W 008°37'2011.7
2017-Sep-17 01:46N 36°15' W 009°02'411.7
2017-Sep-17 01:26N 36°16' W 009°07'1011.4
2017-Sep-17 00:36N 36°17' W 009°18'  
2017-Sep-14 18:39N 37°27' W 022°45'312.2
2017-Sep-14 18:24N 37°27' W 022°49'512.1
2017-Sep-14 17:58N 37°28' W 022°56'712.3
2017-Sep-14 17:22N 37°28' W 023°05'512.4
2017-Sep-14 16:58N 37°28' W 023°12'1412.4
2017-Sep-14 15:48N 37°28' W 023°30'412.1
2017-Sep-14 15:29N 37°28' W 023°34'612.1
2017-Sep-14 15:00N 37°29' W 023°42'612.2
2017-Sep-14 14:30N 37°29' W 023°49'612.2
2017-Sep-14 14:01N 37°29' W 023°57'612.5
2017-Sep-14 13:30N 37°29' W 024°05'612.7
2017-Sep-14 13:00N 37°29' W 024°13'712.9
2017-Sep-14 12:30N 37°29' W 024°21'612.4
2017-Sep-14 12:00N 37°29' W 024°29'612.2
2017-Sep-14 11:30N 37°29' W 024°37'612.3
2017-Sep-14 11:00N 37°30' W 024°44'612.4
2017-Sep-14 10:30N 37°30' W 024°52'612.6
2017-Sep-14 10:01N 37°30' W 025°00'612.6
2017-Sep-14 09:31N 37°30' W 025°08'612.6
2017-Sep-14 09:01N 37°30' W 025°16'612.4
2017-Sep-14 08:30N 37°30' W 025°24'612.6
2017-Sep-14 08:00N 37°30' W 025°32'612.5
2017-Sep-14 07:31N 37°30' W 025°40'612.6
2017-Sep-14 07:01N 37°30' W 025°48'612.4
2017-Sep-14 06:31N 37°30' W 025°55'612.4
2017-Sep-14 06:01N 37°30' W 026°03'612.1
2017-Sep-14 05:30N 37°31' W 026°11'612.2
2017-Sep-14 05:01N 37°31' W 026°19'612.2
2017-Sep-14 04:30N 37°31' W 026°26'612.5
2017-Sep-14 04:00N 37°31' W 026°34'612.4
2017-Sep-14 03:30N 37°31' W 026°42'612.5
2017-Sep-14 03:00N 37°31' W 026°50'612.4
2017-Sep-14 02:30N 37°31' W 026°58'812.5
2017-Sep-14 01:52N 37°31' W 027°08'512.3
2017-Sep-14 01:29N 37°31' W 027°14'612.1
2017-Sep-14 01:01N 37°31' W 027°21'712.1
2017-Sep-14 00:27N 37°31' W 027°29'712.4
2017-Sep-13 23:53N 37°32' W 027°38'512.3
2017-Sep-13 23:30N 37°32' W 027°44'612.6
2017-Sep-13 23:00N 37°32' W 027°52'612.7
2017-Sep-13 22:30N 37°32' W 027°60'612.8
2017-Sep-13 22:00N 37°32' W 028°08'612.3
2017-Sep-13 21:30N 37°32' W 028°16'612.2
2017-Sep-13 21:00N 37°32' W 028°24'612.3
2017-Sep-13 20:30N 37°32' W 028°31'612.4
2017-Sep-13 20:00N 37°32' W 028°39'612.4
2017-Sep-13 19:31N 37°32' W 028°47'612.2
2017-Sep-13 19:00N 37°32' W 028°55'612.4
2017-Sep-13 18:30N 37°32' W 029°02'612.4
2017-Sep-13 18:00N 37°33' W 029°10'612.3
2017-Sep-13 17:30N 37°32' W 029°18'612.5
2017-Sep-13 17:00N 37°32' W 029°26'612.5
2017-Sep-13 16:30N 37°33' W 029°34'612.3
2017-Sep-13 15:59N 37°33' W 029°42'612.7
2017-Sep-13 15:30N 37°33' W 029°50'713.0
2017-Sep-13 15:00N 37°33' W 029°58'712.6
2017-Sep-13 14:28N 37°33' W 030°06'612.8
2017-Sep-13 13:58N 37°32' W 030°14'  

Dump ship's entire track history